Flagstaff Pulliam Airport
KFLG : rendu visible

Aérodrome :











RETROUVEZ-NOUS SUR...

 
LOGIN :

S'inscrire | Disclaimer

   EN    FR    IT 

 









Légende :    VFR   VFR Marginal   IFR   IFR Intensif   IFR Très Intensif
Visi : 
Plafond : 
>= 8 km
>= 3000ft
5 à 8 km
1000 à 3000 ft
1500m à 5 km
500 à 1000 ft
800 à 1500m
200 à 500 ft
< 800m
< 200 ft
Symboles :   Orages  Brouillard  Fortes neiges  Fortes précipitations  Vent > 20 kt






- Altitude de l'aérodrome : 7014 ft
- Code IATA : FLG


KFLG - Flagstaff Pulliam

DERNIER METAR :
  • 260657Z AUTO 00000KT 10SM CLR M04/M06 A3024 RMK AO2 SLP218 T10391061 401171072

METARs EXPIRÉS :
  • 260557Z AUTO 00000KT 10SM CLR M04/M06 A3024 RMK AO2 SLP220 T10391061 10078 21039 53004
  • 260457Z AUTO 00000KT 10SM CLR M03/M06 A3023 RMK AO2 SLP230 T10331061

TAF KFLG
Valide du 26 à 06h jusqu'au 27 à 06h UTC


260520Z 2606/2706 07006KT P6SM SCT250
FM261900 23010G20KT P6SM BKN250
FM270100 23006KT P6SM BKN250



MET'MAP, la Météo Aéronautique d'un coup d'oeil ! - Copyright ORBIFLY Décembre 2007 - Disclaimer

ORBIFLY MET'MAP TEAM :

Programmation & Développement : Alexandra Zaïnal
Sur une idée originale de : Baudouin d'Aumeries
Assistance à la programmation : Marc-Olivier Méhu
Soutien technique & logistique : Manuel Goepfert

Contact : metmap@orbifly.com




SOURCES & CREDITS :

   NOAA       Earth
Advisory